sensor_id;sensor_type;location;lat;lon;timestamp;temperature;humidity
8850;DHT22;5638;50.860;4.698;2022-12-10T00:01:19;3.10;99.90
8850;DHT22;5638;50.860;4.698;2022-12-10T00:03:46;3.30;99.90
8850;DHT22;5638;50.860;4.698;2022-12-10T00:06:18;3.40;99.90
8850;DHT22;5638;50.860;4.698;2022-12-10T00:08:45;3.40;99.90
8850;DHT22;5638;50.860;4.698;2022-12-10T00:11:14;3.40;99.90
8850;DHT22;5638;50.860;4.698;2022-12-10T00:13:42;3.40;99.90
8850;DHT22;5638;50.860;4.698;2022-12-10T00:16:11;3.30;99.90
8850;DHT22;5638;50.860;4.698;2022-12-10T00:18:38;3.30;99.90
8850;DHT22;5638;50.860;4.698;2022-12-10T00:21:10;3.10;99.90
8850;DHT22;5638;50.860;4.698;2022-12-10T00:23:38;3.20;99.90
8850;DHT22;5638;50.860;4.698;2022-12-10T00:26:07;3.30;99.90
8850;DHT22;5638;50.860;4.698;2022-12-10T00:28:36;3.20;99.90
8850;DHT22;5638;50.860;4.698;2022-12-10T00:31:07;3.00;99.90
8850;DHT22;5638;50.860;4.698;2022-12-10T00:33:35;3.20;99.90
8850;DHT22;5638;50.860;4.698;2022-12-10T00:36:20;3.30;99.90
8850;DHT22;5638;50.860;4.698;2022-12-10T00:38:51;3.40;99.90
8850;DHT22;5638;50.860;4.698;2022-12-10T00:41:17;3.50;99.90
8850;DHT22;5638;50.860;4.698;2022-12-10T00:43:44;3.40;99.90
8850;DHT22;5638;50.860;4.698;2022-12-10T00:46:11;3.60;99.90
8850;DHT22;5638;50.860;4.698;2022-12-10T00:48:39;3.60;99.90
8850;DHT22;5638;50.860;4.698;2022-12-10T00:51:16;3.40;99.90
8850;DHT22;5638;50.860;4.698;2022-12-10T00:53:46;3.50;99.90
8850;DHT22;5638;50.860;4.698;2022-12-10T00:56:15;3.50;99.90
8850;DHT22;5638;50.860;4.698;2022-12-10T00:58:42;3.50;99.90
8850;DHT22;5638;50.860;4.698;2022-12-10T01:01:22;3.50;99.90
8850;DHT22;5638;50.860;4.698;2022-12-10T01:03:51;3.40;99.90
8850;DHT22;5638;50.860;4.698;2022-12-10T01:08:49;3.40;99.90
8850;DHT22;5638;50.860;4.698;2022-12-10T01:11:20;3.30;99.90
8850;DHT22;5638;50.860;4.698;2022-12-10T01:13:48;3.30;99.90
8850;DHT22;5638;50.860;4.698;2022-12-10T01:16:16;3.30;99.90
8850;DHT22;5638;50.860;4.698;2022-12-10T01:18:44;3.30;99.90
8850;DHT22;5638;50.860;4.698;2022-12-10T01:21:14;3.10;99.90
8850;DHT22;5638;50.860;4.698;2022-12-10T01:23:42;3.00;99.90
8850;DHT22;5638;50.860;4.698;2022-12-10T01:26:15;3.00;99.90
8850;DHT22;5638;50.860;4.698;2022-12-10T01:28:43;3.00;99.90
8850;DHT22;5638;50.860;4.698;2022-12-10T01:31:12;2.90;99.90
8850;DHT22;5638;50.860;4.698;2022-12-10T01:33:42;2.80;99.90
8850;DHT22;5638;50.860;4.698;2022-12-10T01:36:16;2.70;99.90
8850;DHT22;5638;50.860;4.698;2022-12-10T01:38:44;2.80;99.90
8850;DHT22;5638;50.860;4.698;2022-12-10T01:41:18;2.90;99.90
8850;DHT22;5638;50.860;4.698;2022-12-10T01:46:44;3.20;99.90
8850;DHT22;5638;50.860;4.698;2022-12-10T01:49:14;3.10;99.90
8850;DHT22;5638;50.860;4.698;2022-12-10T01:51:49;3.00;99.90
8850;DHT22;5638;50.860;4.698;2022-12-10T01:54:23;3.10;99.90
8850;DHT22;5638;50.860;4.698;2022-12-10T01:57:01;3.20;99.90
8850;DHT22;5638;50.860;4.698;2022-12-10T01:59:31;3.10;99.90
8850;DHT22;5638;50.860;4.698;2022-12-10T02:07:59;3.20;99.90
8850;DHT22;5638;50.860;4.698;2022-12-10T02:10:57;3.20;99.90
8850;DHT22;5638;50.860;4.698;2022-12-10T02:13:49;3.20;99.90
8850;DHT22;5638;50.860;4.698;2022-12-10T02:16:32;3.10;99.90
8850;DHT22;5638;50.860;4.698;2022-12-10T02:22:07;3.10;99.90
8850;DHT22;5638;50.860;4.698;2022-12-10T02:24:36;3.00;99.90
8850;DHT22;5638;50.860;4.698;2022-12-10T02:27:26;3.00;99.90
8850;DHT22;5638;50.860;4.698;2022-12-10T02:30:00;2.60;99.90
8850;DHT22;5638;50.860;4.698;2022-12-10T02:32:33;2.70;99.90
8850;DHT22;5638;50.860;4.698;2022-12-10T02:35:07;2.80;99.90
8850;DHT22;5638;50.860;4.698;2022-12-10T02:38:29;2.80;99.90
8850;DHT22;5638;50.860;4.698;2022-12-10T02:40:48;2.80;99.90
8850;DHT22;5638;50.860;4.698;2022-12-10T02:43:18;3.00;99.90
8850;DHT22;5638;50.860;4.698;2022-12-10T02:45:46;3.10;99.90
8850;DHT22;5638;50.860;4.698;2022-12-10T02:48:12;3.00;99.90
8850;DHT22;5638;50.860;4.698;2022-12-10T02:50:39;3.10;99.90
8850;DHT22;5638;50.860;4.698;2022-12-10T02:53:05;3.20;99.90
8850;DHT22;5638;50.860;4.698;2022-12-10T02:55:42;3.20;99.90
8850;DHT22;5638;50.860;4.698;2022-12-10T03:04:01;3.10;99.90
8850;DHT22;5638;50.860;4.698;2022-12-10T03:06:41;2.90;99.90
8850;DHT22;5638;50.860;4.698;2022-12-10T03:09:22;2.80;99.90
8850;DHT22;5638;50.860;4.698;2022-12-10T03:11:59;2.70;99.90
8850;DHT22;5638;50.860;4.698;2022-12-10T03:14:32;2.80;99.90
8850;DHT22;5638;50.860;4.698;2022-12-10T03:17:01;2.60;99.90
8850;DHT22;5638;50.860;4.698;2022-12-10T03:19:36;2.60;99.90
8850;DHT22;5638;50.860;4.698;2022-12-10T03:22:07;2.80;99.90
8850;DHT22;5638;50.860;4.698;2022-12-10T03:24:35;2.70;99.90
8850;DHT22;5638;50.860;4.698;2022-12-10T03:27:05;2.60;99.90
8850;DHT22;5638;50.860;4.698;2022-12-10T03:29:38;2.80;99.90
8850;DHT22;5638;50.860;4.698;2022-12-10T03:32:18;2.90;99.90
8850;DHT22;5638;50.860;4.698;2022-12-10T03:34:49;2.80;99.90
8850;DHT22;5638;50.860;4.698;2022-12-10T03:37:18;2.80;99.90
8850;DHT22;5638;50.860;4.698;2022-12-10T03:39:46;3.00;99.90
8850;DHT22;5638;50.860;4.698;2022-12-10T03:42:12;3.10;99.90
8850;DHT22;5638;50.860;4.698;2022-12-10T03:44:38;3.00;99.90
8850;DHT22;5638;50.860;4.698;2022-12-10T03:47:07;3.10;99.90
8850;DHT22;5638;50.860;4.698;2022-12-10T03:49:36;2.90;99.90
8850;DHT22;5638;50.860;4.698;2022-12-10T03:52:02;3.00;99.90
8850;DHT22;5638;50.860;4.698;2022-12-10T03:54:29;3.00;99.90
8850;DHT22;5638;50.860;4.698;2022-12-10T03:56:54;3.00;99.90
8850;DHT22;5638;50.860;4.698;2022-12-10T03:59:20;3.10;99.90
8850;DHT22;5638;50.860;4.698;2022-12-10T04:01:47;3.20;99.90
8850;DHT22;5638;50.860;4.698;2022-12-10T04:04:13;3.10;99.90
8850;DHT22;5638;50.860;4.698;2022-12-10T04:06:40;3.10;99.90
8850;DHT22;5638;50.860;4.698;2022-12-10T04:09:10;3.20;99.90
8850;DHT22;5638;50.860;4.698;2022-12-10T04:11:37;3.10;99.90
8850;DHT22;5638;50.860;4.698;2022-12-10T04:14:03;3.00;99.90
8850;DHT22;5638;50.860;4.698;2022-12-10T04:16:48;3.10;99.90
8850;DHT22;5638;50.860;4.698;2022-12-10T04:19:16;3.10;99.90
8850;DHT22;5638;50.860;4.698;2022-12-10T04:21:44;3.10;99.90
8850;DHT22;5638;50.860;4.698;2022-12-10T04:24:32;3.00;99.90
8850;DHT22;5638;50.860;4.698;2022-12-10T04:27:29;3.00;99.90
8850;DHT22;5638;50.860;4.698;2022-12-10T04:29:58;3.10;99.90
8850;DHT22;5638;50.860;4.698;2022-12-10T04:32:26;2.90;99.90
8850;DHT22;5638;50.860;4.698;2022-12-10T04:34:54;2.90;99.90
8850;DHT22;5638;50.860;4.698;2022-12-10T04:37:21;3.00;99.90
8850;DHT22;5638;50.860;4.698;2022-12-10T04:39:48;3.10;99.90
8850;DHT22;5638;50.860;4.698;2022-12-10T04:42:16;3.00;99.90
8850;DHT22;5638;50.860;4.698;2022-12-10T04:44:42;3.00;99.90
8850;DHT22;5638;50.860;4.698;2022-12-10T04:47:09;3.00;99.90
8850;DHT22;5638;50.860;4.698;2022-12-10T04:49:36;3.00;99.90
8850;DHT22;5638;50.860;4.698;2022-12-10T04:52:02;3.00;99.90
8850;DHT22;5638;50.860;4.698;2022-12-10T04:54:30;3.00;99.90
8850;DHT22;5638;50.860;4.698;2022-12-10T04:56:56;2.90;99.90
8850;DHT22;5638;50.860;4.698;2022-12-10T04:59:22;2.80;99.90
8850;DHT22;5638;50.860;4.698;2022-12-10T05:01:49;2.90;99.90
8850;DHT22;5638;50.860;4.698;2022-12-10T05:04:17;2.90;99.90
8850;DHT22;5638;50.860;4.698;2022-12-10T05:06:44;2.90;99.90
8850;DHT22;5638;50.860;4.698;2022-12-10T05:09:12;2.90;99.90
8850;DHT22;5638;50.860;4.698;2022-12-10T05:11:39;2.90;99.90
8850;DHT22;5638;50.860;4.698;2022-12-10T05:14:05;2.90;99.90
8850;DHT22;5638;50.860;4.698;2022-12-10T05:16:33;2.90;99.90
8850;DHT22;5638;50.860;4.698;2022-12-10T05:19:00;2.90;99.90
8850;DHT22;5638;50.860;4.698;2022-12-10T05:21:27;3.00;99.90
8850;DHT22;5638;50.860;4.698;2022-12-10T05:24:16;3.00;99.90
8850;DHT22;5638;50.860;4.698;2022-12-10T05:26:43;2.90;99.90
8850;DHT22;5638;50.860;4.698;2022-12-10T05:29:09;3.00;99.90
8850;DHT22;5638;50.860;4.698;2022-12-10T05:31:35;3.00;99.90
8850;DHT22;5638;50.860;4.698;2022-12-10T05:34:01;2.80;99.90
8850;DHT22;5638;50.860;4.698;2022-12-10T05:36:30;2.80;99.90
8850;DHT22;5638;50.860;4.698;2022-12-10T05:38:58;2.70;99.90
8850;DHT22;5638;50.860;4.698;2022-12-10T05:41:26;2.70;99.90
8850;DHT22;5638;50.860;4.698;2022-12-10T05:43:55;2.80;99.90
8850;DHT22;5638;50.860;4.698;2022-12-10T05:46:24;2.80;99.90
8850;DHT22;5638;50.860;4.698;2022-12-10T05:48:55;2.70;99.90
8850;DHT22;5638;50.860;4.698;2022-12-10T05:51:24;2.70;99.90
8850;DHT22;5638;50.860;4.698;2022-12-10T05:53:52;2.50;99.90
8850;DHT22;5638;50.860;4.698;2022-12-10T05:56:22;2.40;99.90
8850;DHT22;5638;50.860;4.698;2022-12-10T05:58:51;2.40;99.90
8850;DHT22;5638;50.860;4.698;2022-12-10T06:01:23;2.30;99.90
8850;DHT22;5638;50.860;4.698;2022-12-10T06:03:51;2.30;99.90
8850;DHT22;5638;50.860;4.698;2022-12-10T06:06:28;2.20;99.90
8850;DHT22;5638;50.860;4.698;2022-12-10T06:08:56;2.40;99.90
8850;DHT22;5638;50.860;4.698;2022-12-10T06:11:24;2.50;99.90
8850;DHT22;5638;50.860;4.698;2022-12-10T06:13:53;2.40;99.90
8850;DHT22;5638;50.860;4.698;2022-12-10T06:16:20;2.10;99.90
8850;DHT22;5638;50.860;4.698;2022-12-10T06:18:46;2.20;99.90
8850;DHT22;5638;50.860;4.698;2022-12-10T06:21:16;2.40;99.90
8850;DHT22;5638;50.860;4.698;2022-12-10T06:23:44;2.40;99.90
8850;DHT22;5638;50.860;4.698;2022-12-10T06:26:15;2.60;99.90
8850;DHT22;5638;50.860;4.698;2022-12-10T06:28:45;2.70;99.90
8850;DHT22;5638;50.860;4.698;2022-12-10T06:31:13;2.50;99.90
8850;DHT22;5638;50.860;4.698;2022-12-10T06:33:40;2.60;99.90
8850;DHT22;5638;50.860;4.698;2022-12-10T06:36:09;2.60;99.90
8850;DHT22;5638;50.860;4.698;2022-12-10T06:38:38;2.50;99.90
8850;DHT22;5638;50.860;4.698;2022-12-10T06:41:06;2.40;99.90
8850;DHT22;5638;50.860;4.698;2022-12-10T06:43:34;2.40;99.90
8850;DHT22;5638;50.860;4.698;2022-12-10T06:46:08;2.40;99.90
8850;DHT22;5638;50.860;4.698;2022-12-10T06:48:36;2.40;99.90
8850;DHT22;5638;50.860;4.698;2022-12-10T06:51:03;2.50;99.90
8850;DHT22;5638;50.860;4.698;2022-12-10T06:53:31;2.40;99.90
8850;DHT22;5638;50.860;4.698;2022-12-10T06:55:59;2.50;99.90
8850;DHT22;5638;50.860;4.698;2022-12-10T06:58:27;2.60;99.90
8850;DHT22;5638;50.860;4.698;2022-12-10T07:01:01;2.70;99.90
8850;DHT22;5638;50.860;4.698;2022-12-10T07:03:30;2.60;99.90
8850;DHT22;5638;50.860;4.698;2022-12-10T07:05:59;2.70;99.90
8850;DHT22;5638;50.860;4.698;2022-12-10T07:08:25;2.50;99.90
8850;DHT22;5638;50.860;4.698;2022-12-10T07:10:52;2.50;99.90
8850;DHT22;5638;50.860;4.698;2022-12-10T07:13:18;2.50;99.90
8850;DHT22;5638;50.860;4.698;2022-12-10T07:15:44;2.40;99.90
8850;DHT22;5638;50.860;4.698;2022-12-10T07:18:09;2.40;99.90
8850;DHT22;5638;50.860;4.698;2022-12-10T07:20:36;2.50;99.90
8850;DHT22;5638;50.860;4.698;2022-12-10T07:23:02;2.60;99.90
8850;DHT22;5638;50.860;4.698;2022-12-10T07:25:27;2.70;99.90
8850;DHT22;5638;50.860;4.698;2022-12-10T07:27:54;2.70;99.90
8850;DHT22;5638;50.860;4.698;2022-12-10T07:30:19;2.70;99.90
8850;DHT22;5638;50.860;4.698;2022-12-10T07:32:46;2.70;99.90
8850;DHT22;5638;50.860;4.698;2022-12-10T07:35:11;2.70;99.90
8850;DHT22;5638;50.860;4.698;2022-12-10T07:37:37;2.60;99.90
8850;DHT22;5638;50.860;4.698;2022-12-10T07:40:04;2.50;99.90
8850;DHT22;5638;50.860;4.698;2022-12-10T07:42:30;2.30;99.90
8850;DHT22;5638;50.860;4.698;2022-12-10T07:44:56;2.40;99.90
8850;DHT22;5638;50.860;4.698;2022-12-10T07:47:22;2.40;99.90
8850;DHT22;5638;50.860;4.698;2022-12-10T07:49:47;2.50;99.90
8850;DHT22;5638;50.860;4.698;2022-12-10T07:52:13;2.50;99.90
8850;DHT22;5638;50.860;4.698;2022-12-10T07:54:39;2.50;99.90
8850;DHT22;5638;50.860;4.698;2022-12-10T07:57:05;2.60;99.90
8850;DHT22;5638;50.860;4.698;2022-12-10T07:59:31;2.60;99.90
8850;DHT22;5638;50.860;4.698;2022-12-10T08:01:57;2.70;99.90
8850;DHT22;5638;50.860;4.698;2022-12-10T08:04:23;2.60;99.90
8850;DHT22;5638;50.860;4.698;2022-12-10T08:06:49;2.60;99.90
8850;DHT22;5638;50.860;4.698;2022-12-10T08:09:14;2.50;99.90
8850;DHT22;5638;50.860;4.698;2022-12-10T08:11:40;2.40;99.90
8850;DHT22;5638;50.860;4.698;2022-12-10T08:14:06;2.50;99.90
8850;DHT22;5638;50.860;4.698;2022-12-10T08:16:32;2.50;99.90
8850;DHT22;5638;50.860;4.698;2022-12-10T08:18:59;2.50;99.90
8850;DHT22;5638;50.860;4.698;2022-12-10T08:21:29;2.60;99.90
8850;DHT22;5638;50.860;4.698;2022-12-10T08:23:57;2.50;99.90
8850;DHT22;5638;50.860;4.698;2022-12-10T08:26:25;2.70;99.90
8850;DHT22;5638;50.860;4.698;2022-12-10T08:28:53;2.60;99.90
8850;DHT22;5638;50.860;4.698;2022-12-10T08:31:22;2.70;99.90
8850;DHT22;5638;50.860;4.698;2022-12-10T08:33:49;2.60;99.90
8850;DHT22;5638;50.860;4.698;2022-12-10T08:36:16;2.60;99.90
8850;DHT22;5638;50.860;4.698;2022-12-10T08:38:44;2.60;99.90
8850;DHT22;5638;50.860;4.698;2022-12-10T08:41:17;2.60;99.90
8850;DHT22;5638;50.860;4.698;2022-12-10T08:43:48;2.60;99.90
8850;DHT22;5638;50.860;4.698;2022-12-10T08:46:16;2.50;99.90
8850;DHT22;5638;50.860;4.698;2022-12-10T08:48:42;2.50;99.90
8850;DHT22;5638;50.860;4.698;2022-12-10T08:51:11;2.60;99.90
8850;DHT22;5638;50.860;4.698;2022-12-10T08:53:40;2.60;99.90
8850;DHT22;5638;50.860;4.698;2022-12-10T08:56:06;2.50;99.90
8850;DHT22;5638;50.860;4.698;2022-12-10T08:58:32;2.20;99.90
8850;DHT22;5638;50.860;4.698;2022-12-10T09:00:59;2.50;99.90
8850;DHT22;5638;50.860;4.698;2022-12-10T09:03:31;2.70;99.90
8850;DHT22;5638;50.860;4.698;2022-12-10T09:06:02;2.70;99.90
8850;DHT22;5638;50.860;4.698;2022-12-10T09:08:33;2.70;99.90
8850;DHT22;5638;50.860;4.698;2022-12-10T09:11:05;2.70;99.90
8850;DHT22;5638;50.860;4.698;2022-12-10T09:13:35;2.90;99.90
8850;DHT22;5638;50.860;4.698;2022-12-10T09:16:01;3.10;99.90
8850;DHT22;5638;50.860;4.698;2022-12-10T09:18:27;2.90;99.90
8850;DHT22;5638;50.860;4.698;2022-12-10T09:20:53;2.90;99.90
8850;DHT22;5638;50.860;4.698;2022-12-10T09:23:19;2.70;99.90
8850;DHT22;5638;50.860;4.698;2022-12-10T09:25:45;2.80;99.90
8850;DHT22;5638;50.860;4.698;2022-12-10T09:28:11;2.70;99.90
8850;DHT22;5638;50.860;4.698;2022-12-10T09:30:37;2.60;99.90
8850;DHT22;5638;50.860;4.698;2022-12-10T09:33:03;2.50;99.90
8850;DHT22;5638;50.860;4.698;2022-12-10T09:35:28;2.50;99.90
8850;DHT22;5638;50.860;4.698;2022-12-10T09:37:54;2.40;99.90
8850;DHT22;5638;50.860;4.698;2022-12-10T09:40:41;2.60;99.90
8850;DHT22;5638;50.860;4.698;2022-12-10T09:43:22;2.50;99.90
8850;DHT22;5638;50.860;4.698;2022-12-10T09:46:24;2.40;99.90
8850;DHT22;5638;50.860;4.698;2022-12-10T09:49:28;2.40;99.90
8850;DHT22;5638;50.860;4.698;2022-12-10T09:52:05;2.50;99.90
8850;DHT22;5638;50.860;4.698;2022-12-10T09:54:43;2.60;99.90
8850;DHT22;5638;50.860;4.698;2022-12-10T09:57:27;2.70;99.90
8850;DHT22;5638;50.860;4.698;2022-12-10T09:59:56;2.50;99.90
8850;DHT22;5638;50.860;4.698;2022-12-10T10:02:32;2.60;99.90
8850;DHT22;5638;50.860;4.698;2022-12-10T10:07:30;2.60;99.90
8850;DHT22;5638;50.860;4.698;2022-12-10T10:10:18;2.70;99.90
8850;DHT22;5638;50.860;4.698;2022-12-10T10:15:40;2.90;99.90
8850;DHT22;5638;50.860;4.698;2022-12-10T10:20:48;3.20;99.90
8850;DHT22;5638;50.860;4.698;2022-12-10T10:23:15;3.30;99.90
8850;DHT22;5638;50.860;4.698;2022-12-10T10:25:43;3.10;99.90
8850;DHT22;5638;50.860;4.698;2022-12-10T10:28:12;3.00;99.90
8850;DHT22;5638;50.860;4.698;2022-12-10T10:30:44;3.10;99.90
8850;DHT22;5638;50.860;4.698;2022-12-10T10:33:12;3.20;99.90
8850;DHT22;5638;50.860;4.698;2022-12-10T10:35:54;3.10;99.90
8850;DHT22;5638;50.860;4.698;2022-12-10T10:38:26;3.10;99.90
8850;DHT22;5638;50.860;4.698;2022-12-10T10:40:56;3.10;99.90
8850;DHT22;5638;50.860;4.698;2022-12-10T10:43:40;3.10;99.90
8850;DHT22;5638;50.860;4.698;2022-12-10T10:46:17;3.10;99.90
8850;DHT22;5638;50.860;4.698;2022-12-10T10:48:47;2.80;99.90
8850;DHT22;5638;50.860;4.698;2022-12-10T10:53:46;2.90;99.90
8850;DHT22;5638;50.860;4.698;2022-12-10T10:56:25;2.80;99.90
8850;DHT22;5638;50.860;4.698;2022-12-10T10:59:48;2.90;99.90
8850;DHT22;5638;50.860;4.698;2022-12-10T11:04:56;3.00;99.90
8850;DHT22;5638;50.860;4.698;2022-12-10T11:07:33;3.10;99.90
8850;DHT22;5638;50.860;4.698;2022-12-10T11:10:02;3.30;99.90
8850;DHT22;5638;50.860;4.698;2022-12-10T11:12:40;3.10;99.90
8850;DHT22;5638;50.860;4.698;2022-12-10T11:17:53;3.50;99.90
8850;DHT22;5638;50.860;4.698;2022-12-10T11:20:32;3.60;99.90
8850;DHT22;5638;50.860;4.698;2022-12-10T11:23:02;3.50;99.90
8850;DHT22;5638;50.860;4.698;2022-12-10T11:26:15;3.60;99.90
8850;DHT22;5638;50.860;4.698;2022-12-10T11:40:14;3.70;99.90
8850;DHT22;5638;50.860;4.698;2022-12-10T11:48:54;3.70;99.90
8850;DHT22;5638;50.860;4.698;2022-12-10T11:50:50;3.80;99.90
8850;DHT22;5638;50.860;4.698;2022-12-10T11:56:26;3.70;99.90
8850;DHT22;5638;50.860;4.698;2022-12-10T12:02:42;3.30;99.90
8850;DHT22;5638;50.860;4.698;2022-12-10T12:13:35;3.60;99.90
8850;DHT22;5638;50.860;4.698;2022-12-10T12:16:19;3.70;99.90
8850;DHT22;5638;50.860;4.698;2022-12-10T12:21:49;3.70;99.90
8850;DHT22;5638;50.860;4.698;2022-12-10T12:24:37;3.60;99.90
8850;DHT22;5638;50.860;4.698;2022-12-10T12:27:21;3.70;99.90
8850;DHT22;5638;50.860;4.698;2022-12-10T12:35:52;4.10;99.90
8850;DHT22;5638;50.860;4.698;2022-12-10T12:38:36;4.10;99.90
8850;DHT22;5638;50.860;4.698;2022-12-10T12:41:34;4.10;99.90
8850;DHT22;5638;50.860;4.698;2022-12-10T12:47:47;4.20;99.90
8850;DHT22;5638;50.860;4.698;2022-12-10T12:53:25;4.00;99.90
8850;DHT22;5638;50.860;4.698;2022-12-10T13:02:02;4.10;99.90
8850;DHT22;5638;50.860;4.698;2022-12-10T13:04:31;4.20;99.90
8850;DHT22;5638;50.860;4.698;2022-12-10T13:07:28;4.10;99.90
8850;DHT22;5638;50.860;4.698;2022-12-10T13:10:18;4.10;99.90
8850;DHT22;5638;50.860;4.698;2022-12-10T13:13:05;4.10;99.90
8850;DHT22;5638;50.860;4.698;2022-12-10T13:15:38;4.00;99.90
8850;DHT22;5638;50.860;4.698;2022-12-10T13:20:49;4.00;99.90
8850;DHT22;5638;50.860;4.698;2022-12-10T13:28:38;4.00;99.90
8850;DHT22;5638;50.860;4.698;2022-12-10T13:34:25;4.00;99.90
8850;DHT22;5638;50.860;4.698;2022-12-10T13:37:06;4.10;99.90
8850;DHT22;5638;50.860;4.698;2022-12-10T13:40:12;4.00;99.90
8850;DHT22;5638;50.860;4.698;2022-12-10T13:42:56;4.10;99.90
8850;DHT22;5638;50.860;4.698;2022-12-10T13:48:57;4.40;99.90
8850;DHT22;5638;50.860;4.698;2022-12-10T13:57:30;4.00;99.90
8850;DHT22;5638;50.860;4.698;2022-12-10T14:00:22;4.00;99.90
8850;DHT22;5638;50.860;4.698;2022-12-10T14:05:52;4.20;99.90
8850;DHT22;5638;50.860;4.698;2022-12-10T14:08:32;4.10;99.90
8850;DHT22;5638;50.860;4.698;2022-12-10T14:11:02;4.10;99.90
8850;DHT22;5638;50.860;4.698;2022-12-10T14:13:41;4.10;99.90
8850;DHT22;5638;50.860;4.698;2022-12-10T14:16:12;4.20;99.90
8850;DHT22;5638;50.860;4.698;2022-12-10T14:18:42;4.30;99.90
8850;DHT22;5638;50.860;4.698;2022-12-10T14:21:14;4.30;99.90
8850;DHT22;5638;50.860;4.698;2022-12-10T14:23:48;4.30;99.90
8850;DHT22;5638;50.860;4.698;2022-12-10T14:26:26;4.20;99.90
8850;DHT22;5638;50.860;4.698;2022-12-10T14:29:00;4.10;99.90
8850;DHT22;5638;50.860;4.698;2022-12-10T14:31:39;4.10;99.90
8850;DHT22;5638;50.860;4.698;2022-12-10T14:34:26;4.20;99.90
8850;DHT22;5638;50.860;4.698;2022-12-10T14:36:56;4.30;99.90
8850;DHT22;5638;50.860;4.698;2022-12-10T14:39:31;4.40;99.90
8850;DHT22;5638;50.860;4.698;2022-12-10T14:42:01;4.40;99.90
8850;DHT22;5638;50.860;4.698;2022-12-10T14:44:30;4.50;99.90
8850;DHT22;5638;50.860;4.698;2022-12-10T14:47:13;4.60;99.90
8850;DHT22;5638;50.860;4.698;2022-12-10T14:49:47;4.50;99.90
8850;DHT22;5638;50.860;4.698;2022-12-10T14:52:17;4.40;99.90
8850;DHT22;5638;50.860;4.698;2022-12-10T14:54:46;4.40;99.90
8850;DHT22;5638;50.860;4.698;2022-12-10T15:02:42;4.40;99.90
8850;DHT22;5638;50.860;4.698;2022-12-10T15:05:12;4.10;99.90
8850;DHT22;5638;50.860;4.698;2022-12-10T15:07:52;4.30;99.90
8850;DHT22;5638;50.860;4.698;2022-12-10T15:10:35;4.30;99.90
8850;DHT22;5638;50.860;4.698;2022-12-10T15:13:04;4.40;99.90
8850;DHT22;5638;50.860;4.698;2022-12-10T15:15:37;4.30;99.90
8850;DHT22;5638;50.860;4.698;2022-12-10T15:20:54;4.30;99.90
8850;DHT22;5638;50.860;4.698;2022-12-10T15:23:31;4.40;99.90
8850;DHT22;5638;50.860;4.698;2022-12-10T15:26:19;4.40;99.90
8850;DHT22;5638;50.860;4.698;2022-12-10T15:28:49;4.50;99.90
8850;DHT22;5638;50.860;4.698;2022-12-10T15:34:06;4.50;99.90
8850;DHT22;5638;50.860;4.698;2022-12-10T15:36:48;4.40;99.90
8850;DHT22;5638;50.860;4.698;2022-12-10T15:39:32;4.50;99.90
8850;DHT22;5638;50.860;4.698;2022-12-10T15:42:07;4.60;99.90
8850;DHT22;5638;50.860;4.698;2022-12-10T15:44:41;4.60;99.90
8850;DHT22;5638;50.860;4.698;2022-12-10T15:49:45;4.30;99.90
8850;DHT22;5638;50.860;4.698;2022-12-10T15:52:17;4.30;99.90
8850;DHT22;5638;50.860;4.698;2022-12-10T15:54:49;4.30;99.90
8850;DHT22;5638;50.860;4.698;2022-12-10T15:57:35;4.30;99.90
8850;DHT22;5638;50.860;4.698;2022-12-10T16:00:08;4.30;99.90
8850;DHT22;5638;50.860;4.698;2022-12-10T16:05:29;4.30;99.90
8850;DHT22;5638;50.860;4.698;2022-12-10T16:08:01;4.30;99.90
8850;DHT22;5638;50.860;4.698;2022-12-10T16:10:36;4.40;99.90
8850;DHT22;5638;50.860;4.698;2022-12-10T16:13:10;4.40;99.90
8850;DHT22;5638;50.860;4.698;2022-12-10T16:15:48;4.40;99.90
8850;DHT22;5638;50.860;4.698;2022-12-10T16:18:18;4.10;99.90
8850;DHT22;5638;50.860;4.698;2022-12-10T16:20:44;4.10;99.90
8850;DHT22;5638;50.860;4.698;2022-12-10T16:23:11;4.20;99.90
8850;DHT22;5638;50.860;4.698;2022-12-10T16:25:38;4.20;99.90
8850;DHT22;5638;50.860;4.698;2022-12-10T16:28:11;4.30;99.90
8850;DHT22;5638;50.860;4.698;2022-12-10T16:30:47;4.30;99.90
8850;DHT22;5638;50.860;4.698;2022-12-10T16:33:16;4.20;99.90
8850;DHT22;5638;50.860;4.698;2022-12-10T16:35:47;4.10;99.90
8850;DHT22;5638;50.860;4.698;2022-12-10T16:38:14;4.10;99.90
8850;DHT22;5638;50.860;4.698;2022-12-10T16:40:42;4.20;99.90
8850;DHT22;5638;50.860;4.698;2022-12-10T16:43:20;4.30;99.90
8850;DHT22;5638;50.860;4.698;2022-12-10T16:45:49;4.40;99.90
8850;DHT22;5638;50.860;4.698;2022-12-10T16:48:16;4.40;99.90
8850;DHT22;5638;50.860;4.698;2022-12-10T16:50:44;4.50;99.90
8850;DHT22;5638;50.860;4.698;2022-12-10T16:53:16;4.40;99.90
8850;DHT22;5638;50.860;4.698;2022-12-10T16:55:43;4.40;99.90
8850;DHT22;5638;50.860;4.698;2022-12-10T16:58:11;4.20;99.90
8850;DHT22;5638;50.860;4.698;2022-12-10T17:00:43;4.10;99.90
8850;DHT22;5638;50.860;4.698;2022-12-10T17:03:15;4.20;99.90
8850;DHT22;5638;50.860;4.698;2022-12-10T17:05:51;4.20;99.90
8850;DHT22;5638;50.860;4.698;2022-12-10T17:08:18;4.20;99.90
8850;DHT22;5638;50.860;4.698;2022-12-10T17:10:46;4.10;99.90
8850;DHT22;5638;50.860;4.698;2022-12-10T17:13:33;4.20;99.90
8850;DHT22;5638;50.860;4.698;2022-12-10T17:16:01;4.20;99.90
8850;DHT22;5638;50.860;4.698;2022-12-10T17:18:28;4.20;99.90
8850;DHT22;5638;50.860;4.698;2022-12-10T17:20:54;4.20;99.90
8850;DHT22;5638;50.860;4.698;2022-12-10T17:23:20;4.00;99.90
8850;DHT22;5638;50.860;4.698;2022-12-10T17:25:47;4.00;99.90
8850;DHT22;5638;50.860;4.698;2022-12-10T17:28:21;3.90;99.90
8850;DHT22;5638;50.860;4.698;2022-12-10T17:30:48;3.90;99.90
8850;DHT22;5638;50.860;4.698;2022-12-10T17:33:19;3.80;99.90
8850;DHT22;5638;50.860;4.698;2022-12-10T17:35:48;3.70;99.90
8850;DHT22;5638;50.860;4.698;2022-12-10T17:38:19;3.50;99.90
8850;DHT22;5638;50.860;4.698;2022-12-10T17:40:48;3.70;99.90
8850;DHT22;5638;50.860;4.698;2022-12-10T17:43:14;3.50;99.90
8850;DHT22;5638;50.860;4.698;2022-12-10T17:45:42;3.70;99.90
8850;DHT22;5638;50.860;4.698;2022-12-10T17:48:16;3.70;99.90
8850;DHT22;5638;50.860;4.698;2022-12-10T17:50:45;3.70;99.90
8850;DHT22;5638;50.860;4.698;2022-12-10T17:53:13;3.70;99.90
8850;DHT22;5638;50.860;4.698;2022-12-10T17:55:50;3.80;99.90
8850;DHT22;5638;50.860;4.698;2022-12-10T17:58:21;3.80;99.90
8850;DHT22;5638;50.860;4.698;2022-12-10T18:00:49;3.80;99.90
8850;DHT22;5638;50.860;4.698;2022-12-10T18:03:17;3.80;99.90
8850;DHT22;5638;50.860;4.698;2022-12-10T18:05:43;4.00;99.90
8850;DHT22;5638;50.860;4.698;2022-12-10T18:08:16;4.00;99.90
8850;DHT22;5638;50.860;4.698;2022-12-10T18:10:48;4.00;99.90
8850;DHT22;5638;50.860;4.698;2022-12-10T18:13:16;4.10;99.90
8850;DHT22;5638;50.860;4.698;2022-12-10T18:15:42;4.00;99.90
8850;DHT22;5638;50.860;4.698;2022-12-10T18:18:09;4.00;99.90
8850;DHT22;5638;50.860;4.698;2022-12-10T18:20:38;4.10;99.90
8850;DHT22;5638;50.860;4.698;2022-12-10T18:23:07;4.20;99.90
8850;DHT22;5638;50.860;4.698;2022-12-10T18:25:36;4.20;99.90
8850;DHT22;5638;50.860;4.698;2022-12-10T18:30:47;4.10;99.90
8850;DHT22;5638;50.860;4.698;2022-12-10T18:33:15;4.00;99.90
8850;DHT22;5638;50.860;4.698;2022-12-10T18:35:43;4.00;99.90
8850;DHT22;5638;50.860;4.698;2022-12-10T18:38:15;3.80;99.90
8850;DHT22;5638;50.860;4.698;2022-12-10T18:40:42;4.00;99.90
8850;DHT22;5638;50.860;4.698;2022-12-10T18:43:08;4.10;99.90
8850;DHT22;5638;50.860;4.698;2022-12-10T18:45:35;4.10;99.90
8850;DHT22;5638;50.860;4.698;2022-12-10T18:48:01;4.10;99.90
8850;DHT22;5638;50.860;4.698;2022-12-10T18:50:28;4.10;99.90
8850;DHT22;5638;50.860;4.698;2022-12-10T18:52:55;4.20;99.90
8850;DHT22;5638;50.860;4.698;2022-12-10T18:55:23;4.30;99.90
8850;DHT22;5638;50.860;4.698;2022-12-10T18:57:50;4.30;99.90